nws-alerts: Checking more than four warning/county codes can delay the loading of your pages. You should use a cron job to get the data.
EllijayWeather Station Historical Data
Daily Summary for December 30, 2018 Units:  English    Metric   Both
Daily Weekly Monthly Yearly Custom
  High: Low: Average:
Temperature: 55.4 °F 46.9 °F 50.6 °F
Dew Point: 54.7 °F 46.2 °F 50.1 °F
Humidity: 99% 96% 98%
Wind Speed: 0.9mph 0mph 0mph
Wind Gust: 2mph - -
Wind- - North
Pressure: 30.26 in 30.16 in -
Precipitation: 0.17 in    
Historical Graphs
 
 
Tabular Data for December 30, 2018
Time Temperature Dew Point Pressure Wind Wind Speed Wind Gust Humidity Rainfall Rate (Hourly) solar
00:04 46.9 °F 46.2 °F 30.24 in Calm     97% 0.02 in meteobridge W/m2
00:08 46.9 °F 46.2 °F 30.23 in Calm     97% 0.03 in meteobridge W/m2
00:14 46.9 °F 46.2 °F 30.22 in Calm     97% 0.03 in meteobridge W/m2
00:19 46.9 °F 46.4 °F 30.22 in Calm     98% 0.03 in meteobridge W/m2
00:24 47.1 °F 46.6 °F 30.22 in Calm     98% 0.03 in meteobridge W/m2
00:29 47.1 °F 46.6 °F 30.22 in Calm     98% 0.03 in meteobridge W/m2
00:34 46.9 °F 46.4 °F 30.22 in Calm     98% 0.03 in meteobridge W/m2
00:39 47.1 °F 46.6 °F 30.23 in Calm     98% 0.02 in meteobridge W/m2
00:44 47.1 °F 46.6 °F 30.23 in Calm     98% 0.02 in meteobridge W/m2
00:49 47.1 °F 46.6 °F 30.23 in Calm     98% 0.02 in meteobridge W/m2
00:54 47.1 °F 46.6 °F 30.23 in Calm     98% 0.01 in meteobridge W/m2
00:59 47.1 °F 46.6 °F 30.23 in Calm     98% 0.01 in meteobridge W/m2
01:04 47.1 °F 46.6 °F 30.24 in Calm     98% 0.01 in meteobridge W/m2
01:09 47.1 °F 46.6 °F 30.24 in Calm     98% 0 in meteobridge W/m2
01:14 47.1 °F 46.6 °F 30.25 in Calm     98% 0 in meteobridge W/m2
01:19 47.1 °F 46.6 °F 30.24 in Calm     98% 0.01 in meteobridge W/m2
01:24 47.1 °F 46.6 °F 30.24 in Calm     98% 0.01 in meteobridge W/m2
01:29 47.1 °F 46.6 °F 30.24 in Calm     98% 0.02 in meteobridge W/m2
01:34 47.3 °F 46.8 °F 30.23 in Calm     98% 0.02 in meteobridge W/m2
01:39 47.1 °F 46.6 °F 30.23 in Calm     98% 0.02 in meteobridge W/m2
01:44 47.1 °F 46.6 °F 30.22 in Calm     98% 0.02 in meteobridge W/m2
01:49 47.1 °F 46.6 °F 30.22 in Calm     98% 0.03 in meteobridge W/m2
01:54 47.1 °F 46.6 °F 30.22 in Calm     98% 0.04 in meteobridge W/m2
01:59 47.1 °F 46.6 °F 30.22 in Calm     98% 0.04 in meteobridge W/m2
02:04 47.1 °F 46.6 °F 30.21 in Calm     98% 0.05 in meteobridge W/m2
02:09 47.1 °F 46.6 °F 30.20 in Calm     98% 0.05 in meteobridge W/m2
02:14 47.1 °F 46.6 °F 30.20 in Calm     98% 0.05 in meteobridge W/m2
02:19 47.1 °F 46.6 °F 30.20 in Calm     98% 0.04 in meteobridge W/m2
02:24 47.1 °F 46.6 °F 30.20 in Calm     98% 0.04 in meteobridge W/m2
02:29 47.1 °F 46.6 °F 30.20 in Calm     98% 0.03 in meteobridge W/m2
02:34 47.1 °F 46.6 °F 30.20 in Calm     98% 0.03 in meteobridge W/m2
02:39 47.1 °F 46.6 °F 30.22 in Calm     98% 0.03 in meteobridge W/m2
02:44 47.1 °F 46.6 °F 30.21 in Calm     98% 0.03 in meteobridge W/m2
02:49 47.1 °F 46.6 °F 30.22 in Calm     98% 0.02 in meteobridge W/m2
02:54 47.1 °F 46.6 °F 30.19 in Calm     98% 0.01 in meteobridge W/m2
02:59 47.1 °F 46.6 °F 30.19 in Calm     98% 0.01 in meteobridge W/m2
03:04 47.1 °F 46.6 °F 30.21 in Calm     98% 0 in meteobridge W/m2
03:09 47.1 °F 46.6 °F 30.20 in Calm     98% 0 in meteobridge W/m2
03:14 47.1 °F 46.6 °F 30.20 in Calm     98% 0 in meteobridge W/m2
03:19 47.1 °F 46.6 °F 30.21 in Calm     98% 0 in meteobridge W/m2
03:24 47.1 °F 46.6 °F 30.21 in Calm     98% 0 in meteobridge W/m2
03:29 47.3 °F 46.8 °F 30.22 in Calm     98% 0 in meteobridge W/m2
03:34 47.5 °F 46.9 °F 30.21 in Calm     98% 0 in meteobridge W/m2
03:38 47.5 °F 46.9 °F 30.21 in Calm     98% 0 in meteobridge W/m2
03:44 47.5 °F 46.9 °F 30.21 in Calm     98% 0 in meteobridge W/m2
03:49 47.5 °F 46.9 °F 30.20 in Calm     98% 0 in meteobridge W/m2
03:54 47.5 °F 46.9 °F 30.20 in Calm     98% 0 in meteobridge W/m2
03:59 47.5 °F 46.9 °F 30.20 in Calm     98% 0 in meteobridge W/m2
04:04 47.5 °F 46.9 °F 30.19 in Calm     98% 0 in meteobridge W/m2
04:09 47.5 °F 46.9 °F 30.19 in Calm     98% 0 in meteobridge W/m2
04:14 47.7 °F 47.1 °F 30.19 in Calm     98% 0 in meteobridge W/m2
04:19 47.7 °F 47.1 °F 30.20 in Calm     98% 0 in meteobridge W/m2
04:24 47.5 °F 46.9 °F 30.20 in Calm     98% 0 in meteobridge W/m2
04:29 47.7 °F 47.1 °F 30.19 in Calm     98% 0 in meteobridge W/m2
04:34 47.5 °F 46.9 °F 30.18 in Calm     98% 0 in meteobridge W/m2
04:39 47.7 °F 47.1 °F 30.18 in Calm     98% 0 in meteobridge W/m2
04:44 47.7 °F 47.1 °F 30.18 in Calm     98% 0 in meteobridge W/m2
04:49 47.7 °F 47.1 °F 30.18 in Calm     98% 0 in meteobridge W/m2
04:54 47.7 °F 47.1 °F 30.19 in Calm     98% 0.01 in meteobridge W/m2
04:59 47.7 °F 47.1 °F 30.19 in Calm     98% 0.03 in meteobridge W/m2
05:04 47.8 °F 47.3 °F 30.18 in Calm     98% 0.03 in meteobridge W/m2
05:09 47.7 °F 47.1 °F 30.18 in Calm     98% 0.03 in meteobridge W/m2
05:14 47.7 °F 47.1 °F 30.17 in Calm     98% 0.04 in meteobridge W/m2
05:19 47.7 °F 47.1 °F 30.17 in Calm     98% 0.04 in meteobridge W/m2
05:24 47.7 °F 47.1 °F 30.18 in Calm     98% 0.04 in meteobridge W/m2
05:29 47.8 °F 47.3 °F 30.19 in Calm   1 mph 98% 0.04 in meteobridge W/m2
05:34 47.8 °F 47.3 °F 30.18 in Calm     98% 0.04 in meteobridge W/m2
05:39 47.8 °F 47.3 °F 30.19 in Calm     98% 0.04 in meteobridge W/m2
05:44 47.8 °F 47.3 °F 30.18 in Calm     98% 0.04 in meteobridge W/m2
05:49 47.8 °F 47.3 °F 30.19 in Calm   2 mph 98% 0.04 in meteobridge W/m2
05:54 47.8 °F 47.3 °F 30.19 in Calm     98% 0.03 in meteobridge W/m2
05:59 47.8 °F 47.3 °F 30.18 in Calm     98% 0.02 in meteobridge W/m2
06:04 47.7 °F 47.1 °F 30.19 in Calm     98% 0.01 in meteobridge W/m2
06:09 47.7 °F 47.1 °F 30.19 in Calm     98% 0.01 in meteobridge W/m2
06:14 47.7 °F 47.1 °F 30.19 in Calm     98% 0 in meteobridge W/m2
06:19 47.7 °F 47.1 °F 30.19 in Calm     98% 0 in meteobridge W/m2
06:24 47.7 °F 47.1 °F 30.19 in Calm     98% 0 in meteobridge W/m2
06:29 47.7 °F 47.1 °F 30.20 in Calm     98% 0 in meteobridge W/m2
06:34 47.7 °F 47.1 °F 30.20 in Calm     98% 0 in meteobridge W/m2
06:39 47.7 °F 47.1 °F 30.20 in Calm     98% 0.01 in meteobridge W/m2
06:44 47.7 °F 47.1 °F 30.20 in Calm     98% 0.01 in meteobridge W/m2
06:49 47.7 °F 47.1 °F 30.20 in Calm     98% 0.01 in meteobridge W/m2
06:54 47.7 °F 47.1 °F 30.20 in Calm     98% 0.01 in meteobridge W/m2
06:59 47.7 °F 47.1 °F 30.20 in Calm     98% 0.01 in meteobridge W/m2
07:03 47.7 °F 47.1 °F 30.20 in Calm     98% 0.01 in meteobridge W/m2
07:09 47.7 °F 47.5 °F 30.20 in Calm     99% 0.01 in meteobridge W/m2
07:14 47.8 °F 47.3 °F 30.20 in Calm     98% 0.01 in meteobridge W/m2
07:19 47.8 °F 47.3 °F 30.21 in Calm     98% 0.01 in meteobridge W/m2
07:24 47.8 °F 47.3 °F 30.21 in Calm     98% 0.01 in meteobridge W/m2
07:28 47.8 °F 47.3 °F 30.22 in Calm     98% 0.01 in meteobridge W/m2
07:34 47.8 °F 47.3 °F 30.22 in Calm     98% 0.01 in meteobridge W/m2
07:39 47.8 °F 47.3 °F 30.22 in Calm     98% 0 in meteobridge W/m2
07:44 47.8 °F 47.3 °F 30.22 in Calm     98% 0 in meteobridge W/m2
07:49 47.8 °F 47.3 °F 30.23 in Calm     98% 0 in meteobridge W/m2
07:54 47.8 °F 47.3 °F 30.23 in Calm     98% 0 in meteobridge W/m2
07:59 47.8 °F 47.3 °F 30.23 in Calm     98% 0 in meteobridge W/m2
08:04 47.8 °F 47.3 °F 30.24 in Calm     98% 0 in meteobridge W/m2
08:09 47.8 °F 47.3 °F 30.24 in Calm     98% 0 in meteobridge W/m2
08:14 47.8 °F 47.3 °F 30.24 in Calm     98% 0 in meteobridge W/m2
08:19 47.8 °F 47.3 °F 30.24 in Calm     98% 0 in meteobridge W/m2
08:24 47.8 °F 47.3 °F 30.24 in Calm     98% 0.01 in meteobridge W/m2
08:29 47.8 °F 47.3 °F 30.24 in Calm     98% 0.01 in meteobridge W/m2
08:34 47.8 °F 47.3 °F 30.24 in Calm     98% 0.01 in meteobridge W/m2
08:39 47.8 °F 47.3 °F 30.23 in Calm     98% 0.01 in meteobridge W/m2
08:44 47.8 °F 47.3 °F 30.23 in Calm     98% 0.01 in meteobridge W/m2
08:49 47.8 °F 47.3 °F 30.24 in Calm     98% 0.02 in meteobridge W/m2
08:54 47.8 °F 47.3 °F 30.24 in Calm     98% 0.02 in meteobridge W/m2
08:59 47.8 °F 47.7 °F 30.25 in Calm     99% 0.02 in meteobridge W/m2
09:04 48 °F 47.8 °F 30.25 in Calm     99% 0.02 in meteobridge W/m2
09:09 48 °F 47.8 °F 30.25 in Calm     99% 0.02 in meteobridge W/m2
09:14 48 °F 47.8 °F 30.25 in Calm     99% 0.02 in meteobridge W/m2
09:19 48.2 °F 48 °F 30.25 in Calm     99% 0.02 in meteobridge W/m2
09:23 48.2 °F 48 °F 30.25 in Calm     99% 0.01 in meteobridge W/m2
09:29 48.2 °F 48 °F 30.25 in Calm     99% 0.01 in meteobridge W/m2
09:34 48.4 °F 48.2 °F 30.24 in Calm     99% 0.01 in meteobridge W/m2
09:39 48.4 °F 48.2 °F 30.26 in Calm     99% 0.01 in meteobridge W/m2
09:44 48.4 °F 48.2 °F 30.26 in Calm     99% 0.01 in meteobridge W/m2
09:49 48.4 °F 48.2 °F 30.26 in Calm     99% 0 in meteobridge W/m2
09:54 48.4 °F 48.2 °F 30.26 in Calm     99% 0 in meteobridge W/m2
09:59 48.6 °F 48.4 °F 30.26 in Calm     99% 0 in meteobridge W/m2
10:04 48.7 °F 48.6 °F 30.25 in Calm     99% 0 in meteobridge W/m2
10:09 48.7 °F 48.6 °F 30.25 in Calm     99% 0 in meteobridge W/m2
10:14 48.7 °F 48.6 °F 30.25 in Calm     99% 0 in meteobridge W/m2
10:19 48.7 °F 48.6 °F 30.25 in Calm     99% 0 in meteobridge W/m2
10:24 48.9 °F 48.7 °F 30.25 in Calm     99% 0 in meteobridge W/m2
10:29 48.9 °F 48.7 °F 30.25 in Calm     99% 0 in meteobridge W/m2
10:34 49.1 °F 48.9 °F 30.25 in Calm     99% 0 in meteobridge W/m2
10:39 48.9 °F 48.7 °F 30.25 in Calm     99% 0 in meteobridge W/m2
10:44 48.9 °F 48.4 °F 30.25 in Calm     98% 0 in meteobridge W/m2
10:49 49.3 °F 49.1 °F 30.25 in Calm     99% 0 in meteobridge W/m2
10:54 49.3 °F 49.1 °F 30.24 in Calm     99% 0 in meteobridge W/m2
10:59 49.5 °F 49.3 °F 30.24 in Calm     99% 0 in meteobridge W/m2
11:03 49.5 °F 49.3 °F 30.24 in Calm     99% 0 in meteobridge W/m2
11:09 49.6 °F 49.5 °F 30.24 in Calm     99% 0 in meteobridge W/m2
11:14 49.6 °F 49.5 °F 30.24 in Calm     99% 0 in meteobridge W/m2
11:19 49.8 °F 49.5 °F 30.24 in Calm     99% 0 in meteobridge W/m2
11:24 49.8 °F 49.3 °F 30.24 in Calm     98% 0 in meteobridge W/m2
11:29 49.8 °F 49.5 °F 30.23 in Calm     99% 0 in meteobridge W/m2
11:34 49.8 °F 49.3 °F 30.22 in Calm     98% 0 in meteobridge W/m2
11:39 49.8 °F 49.3 °F 30.22 in Calm     98% 0 in meteobridge W/m2
11:44 50.2 °F 49.6 °F 30.22 in Calm     98% 0 in meteobridge W/m2
11:49 50.2 °F 49.6 °F 30.22 in Calm     98% 0 in meteobridge W/m2
11:54 50.4 °F 50 °F 30.22 in Calm     99% 0 in meteobridge W/m2
11:59 50.5 °F 50.2 °F 30.22 in Calm     99% 0 in meteobridge W/m2
12:04 50.5 °F 50 °F 30.21 in Calm     98% 0 in meteobridge W/m2
12:09 50.7 °F 50.2 °F 30.20 in Calm     98% 0 in meteobridge W/m2
12:14 50.7 °F 50.2 °F 30.20 in Calm     98% 0 in meteobridge W/m2
12:19 51.1 °F 50.5 °F 30.20 in Calm     98% 0 in meteobridge W/m2
12:24 51.3 °F 50.7 °F 30.20 in Calm     98% 0 in meteobridge W/m2
12:29 51.3 °F 50.7 °F 30.20 in Calm     98% 0 in meteobridge W/m2
12:34 51.4 °F 50.9 °F 30.20 in Calm     98% 0 in meteobridge W/m2
12:39 51.4 °F 50.9 °F 30.20 in Calm     98% 0 in meteobridge W/m2
12:44 51.6 °F 51.1 °F 30.19 in Calm     98% 0 in meteobridge W/m2
12:49 51.8 °F 51.3 °F 30.19 in Calm     98% 0 in meteobridge W/m2
12:54 52 °F 51.4 °F 30.19 in Calm     98% 0 in meteobridge W/m2
12:59 52 °F 51.4 °F 30.20 in Calm     98% 0 in meteobridge W/m2
13:04 52 °F 51.4 °F 30.19 in Calm     98% 0 in meteobridge W/m2
13:09 52 °F 51.4 °F 30.19 in Calm     98% 0 in meteobridge W/m2
13:14 52.2 °F 51.6 °F 30.18 in Calm     98% 0 in meteobridge W/m2
13:19 52.2 °F 51.6 °F 30.18 in North 0.9 mph 1 mph 98% 0 in meteobridge W/m2
13:24 52.2 °F 51.6 °F 30.18 in Calm     98% 0 in meteobridge W/m2
13:29 52.2 °F 51.3 °F 30.18 in Calm     97% 0 in meteobridge W/m2
13:34 52.2 °F 51.6 °F 30.18 in Calm     98% 0 in meteobridge W/m2
13:39 52.2 °F 51.3 °F 30.17 in Calm     97% 0 in meteobridge W/m2
13:44 52.2 °F 51.6 °F 30.18 in Calm     98% 0 in meteobridge W/m2
13:49 52.3 °F 51.8 °F 30.18 in Calm     98% 0 in meteobridge W/m2
13:54 52.3 °F 51.8 °F 30.17 in Calm     98% 0 in meteobridge W/m2
13:59 52.5 °F 52 °F 30.17 in Calm     98% 0 in meteobridge W/m2
14:04 52.5 °F 52 °F 30.17 in Calm     98% 0 in meteobridge W/m2
14:09 52.9 °F 52.3 °F 30.17 in Calm     98% 0 in meteobridge W/m2
14:14 52.9 °F 52.3 °F 30.17 in Calm     98% 0 in meteobridge W/m2
14:19 53.1 °F 52.5 °F 30.17 in Calm     98% 0 in meteobridge W/m2
14:24 53.1 °F 52.2 °F 30.17 in Calm     97% 0 in meteobridge W/m2
14:29 53.1 °F 52.2 °F 30.17 in Calm     97% 0 in meteobridge W/m2
14:34 53.2 °F 52.7 °F 30.17 in Calm     98% 0 in meteobridge W/m2
14:39 53.4 °F 52.9 °F 30.17 in Calm     98% 0 in meteobridge W/m2
14:44 53.8 °F 53.2 °F 30.17 in Calm     98% 0 in meteobridge W/m2
14:49 53.8 °F 52.9 °F 30.17 in Calm     97% 0 in meteobridge W/m2
14:54 54 °F 53.1 °F 30.17 in Calm     97% 0 in meteobridge W/m2
14:59 54 °F 52.9 °F 30.17 in Calm     96% 0 in meteobridge W/m2
15:04 54.1 °F 53.2 °F 30.17 in Calm     97% 0 in meteobridge W/m2
15:09 54.3 °F 53.4 °F 30.16 in Calm     97% 0 in meteobridge W/m2
15:14 54.5 °F 53.6 °F 30.16 in Calm     97% 0 in meteobridge W/m2
15:19 54.7 °F 53.6 °F 30.17 in Calm     96% 0 in meteobridge W/m2
15:24 54.7 °F 53.8 °F 30.17 in Calm     97% 0 in meteobridge W/m2
15:29 54.9 °F 54 °F 30.17 in Calm     97% 0 in meteobridge W/m2
15:34 55 °F 54.1 °F 30.16 in Calm     97% 0 in meteobridge W/m2
15:39 55 °F 54.1 °F 30.17 in Calm     97% 0 in meteobridge W/m2
15:44 55.2 °F 54.3 °F 30.17 in Calm     97% 0 in meteobridge W/m2
15:49 55.4 °F 54.3 °F 30.17 in Calm     96% 0 in meteobridge W/m2
15:54 55.2 °F 54.3 °F 30.18 in Calm     97% 0 in meteobridge W/m2
15:59 55.4 °F 54.5 °F 30.18 in Calm     97% 0 in meteobridge W/m2
16:04 55.4 °F 54.5 °F 30.17 in Calm     97% 0 in meteobridge W/m2
16:09 55.4 °F 54.5 °F 30.17 in Calm     97% 0 in meteobridge W/m2
16:14 55.2 °F 54.3 °F 30.17 in Calm     97% 0 in meteobridge W/m2
16:19 55.2 °F 54.1 °F 30.18 in Calm     96% 0 in meteobridge W/m2
16:24 55.4 °F 54.5 °F 30.18 in Calm     97% 0 in meteobridge W/m2
16:29 55.2 °F 54.3 °F 30.18 in Calm     97% 0 in meteobridge W/m2
16:34 55.4 °F 54.5 °F 30.18 in Calm     97% 0 in meteobridge W/m2
16:39 55.4 °F 54.5 °F 30.18 in Calm     97% 0 in meteobridge W/m2
16:44 55.2 °F 54.3 °F 30.19 in Calm     97% 0 in meteobridge W/m2
16:49 55.2 °F 54.3 °F 30.19 in Calm     97% 0 in meteobridge W/m2
16:54 55.2 °F 54.3 °F 30.19 in Calm     97% 0 in meteobridge W/m2
16:59 55.2 °F 54.7 °F 30.19 in Calm     98% 0 in meteobridge W/m2
17:04 55.2 °F 54.3 °F 30.19 in Calm     97% 0 in meteobridge W/m2
17:09 55 °F 54.5 °F 30.19 in Calm     98% 0 in meteobridge W/m2
17:14 55 °F 54.5 °F 30.19 in Calm     98% 0 in meteobridge W/m2
17:19 54.9 °F 54.3 °F 30.19 in Calm     98% 0 in meteobridge W/m2
17:24 54.9 °F 54 °F 30.19 in Calm     97% 0 in meteobridge W/m2
17:29 54.7 °F 53.8 °F 30.19 in Calm     97% 0 in meteobridge W/m2
17:34 54.5 °F 53.6 °F 30.19 in Calm     97% 0 in meteobridge W/m2
17:39 54.3 °F 53.4 °F 30.19 in Calm     97% 0 in meteobridge W/m2
17:44 54.3 °F 53.4 °F 30.19 in Calm     97% 0 in meteobridge W/m2
17:49 54.1 °F 53.2 °F 30.19 in Calm     97% 0 in meteobridge W/m2
17:54 54.1 °F 53.2 °F 30.19 in Calm     97% 0 in meteobridge W/m2
17:59 54.1 °F 53.6 °F 30.20 in Calm     98% 0 in meteobridge W/m2
18:04 54 °F 53.4 °F 30.20 in Calm     98% 0 in meteobridge W/m2
18:09 54 °F 53.4 °F 30.19 in Calm     98% 0 in meteobridge W/m2
18:14 54 °F 53.4 °F 30.19 in Calm     98% 0 in meteobridge W/m2
18:19 54 °F 53.4 °F 30.19 in Calm     98% 0 in meteobridge W/m2
18:23 54 °F 53.4 °F 30.19 in Calm     98% 0 in meteobridge W/m2
18:29 53.8 °F 52.9 °F 30.19 in Calm     97% 0 in meteobridge W/m2
18:34 53.8 °F 53.2 °F 30.18 in Calm     98% 0 in meteobridge W/m2
18:39 53.6 °F 53.1 °F 30.19 in Calm     98% 0 in meteobridge W/m2
18:44 53.4 °F 52.9 °F 30.19 in Calm     98% 0 in meteobridge W/m2
18:49 53.4 °F 52.9 °F 30.19 in Calm     98% 0 in meteobridge W/m2
18:54 53.2 °F 52.7 °F 30.19 in Calm     98% 0 in meteobridge W/m2
18:59 53.2 °F 52.7 °F 30.19 in Calm     98% 0 in meteobridge W/m2
19:04 53.1 °F 52.5 °F 30.19 in Calm     98% 0 in meteobridge W/m2
19:09 53.1 °F 52.2 °F 30.19 in Calm     97% 0 in meteobridge W/m2
19:14 52.9 °F 52 °F 30.19 in Calm     97% 0 in meteobridge W/m2
19:19 52.9 °F 52.3 °F 30.19 in Calm     98% 0 in meteobridge W/m2
19:24 52.7 °F 52.2 °F 30.21 in Calm     98% 0 in meteobridge W/m2
19:29 52.5 °F 52 °F 30.21 in Calm     98% 0 in meteobridge W/m2
19:34 52.5 °F 52 °F 30.21 in Calm     98% 0 in meteobridge W/m2
19:39 52.5 °F 52 °F 30.21 in Calm     98% 0 in meteobridge W/m2
19:44 52.5 °F 52 °F 30.21 in Calm     98% 0 in meteobridge W/m2
19:49 52.5 °F 52 °F 30.21 in Calm     98% 0 in meteobridge W/m2
19:54 52.5 °F 52 °F 30.20 in Calm     98% 0 in meteobridge W/m2
19:59 52.5 °F 52 °F 30.20 in Calm     98% 0 in meteobridge W/m2
20:04 52.5 °F 52 °F 30.20 in Calm     98% 0 in meteobridge W/m2
20:09 52.5 °F 52 °F 30.20 in Calm     98% 0 in meteobridge W/m2
20:14 52.5 °F 52 °F 30.21 in Calm     98% 0 in meteobridge W/m2
20:19 52.5 °F 52 °F 30.21 in Calm     98% 0 in meteobridge W/m2
20:24 52.5 °F 52 °F 30.20 in Calm     98% 0 in meteobridge W/m2
20:29 52.5 °F 52 °F 30.20 in Calm     98% 0 in meteobridge W/m2
20:34 52.5 °F 52 °F 30.20 in Calm     98% 0 in meteobridge W/m2
20:39 52.7 °F 52.3 °F 30.20 in Calm     99% 0 in meteobridge W/m2
20:44 52.7 °F 52.3 °F 30.19 in Calm     99% 0 in meteobridge W/m2
20:49 52.7 °F 52.3 °F 30.19 in Calm     99% 0 in meteobridge W/m2
20:54 52.9 °F 52.5 °F 30.19 in Calm   1 mph 99% 0 in meteobridge W/m2
20:59 52.7 °F 52.3 °F 30.19 in Calm     99% 0 in meteobridge W/m2
21:04 52.9 °F 52.5 °F 30.20 in Calm     99% 0 in meteobridge W/m2
21:09 52.9 °F 52.5 °F 30.19 in Calm     99% 0 in meteobridge W/m2
21:14 52.9 °F 52.5 °F 30.19 in Calm     99% 0 in meteobridge W/m2
21:18 52.9 °F 52.5 °F 30.19 in Calm     99% 0 in meteobridge W/m2
21:24 52.9 °F 52.5 °F 30.19 in Calm     99% 0 in meteobridge W/m2
21:29 52.9 °F 52.5 °F 30.19 in Calm     99% 0 in meteobridge W/m2
21:34 53.1 °F 52.7 °F 30.19 in Calm     99% 0 in meteobridge W/m2
21:39 53.1 °F 52.5 °F 30.19 in Calm     98% 0 in meteobridge W/m2
21:44 53.1 °F 52.7 °F 30.19 in Calm     99% 0 in meteobridge W/m2
21:49 53.1 °F 52.7 °F 30.19 in Calm     99% 0 in meteobridge W/m2
21:54 53.1 °F 52.7 °F 30.19 in Calm     99% 0 in meteobridge W/m2
21:59 53.1 °F 52.7 °F 30.19 in Calm     99% 0 in meteobridge W/m2
22:04 53.1 °F 52.7 °F 30.18 in Calm     99% 0 in meteobridge W/m2
22:09 53.1 °F 52.5 °F 30.18 in Calm     98% 0 in meteobridge W/m2
22:14 53.1 °F 52.5 °F 30.18 in Calm     98% 0 in meteobridge W/m2
22:19 53.1 °F 52.5 °F 30.18 in Calm     98% 0 in meteobridge W/m2
22:24 53.1 °F 52.5 °F 30.18 in Calm     98% 0 in meteobridge W/m2
22:29 53.2 °F 52.7 °F 30.18 in Calm     98% 0 in meteobridge W/m2
22:34 53.2 °F 52.7 °F 30.18 in Calm     98% 0 in meteobridge W/m2
22:39 53.2 °F 52.7 °F 30.18 in Calm     98% 0 in meteobridge W/m2
22:44 53.2 °F 52.7 °F 30.18 in Calm   1 mph 98% 0 in meteobridge W/m2
22:49 53.2 °F 52.7 °F 30.18 in Calm     98% 0 in meteobridge W/m2
22:54 53.2 °F 52.7 °F 30.18 in Calm     98% 0 in meteobridge W/m2
22:59 53.2 °F 52.7 °F 30.17 in Calm     98% 0 in meteobridge W/m2
23:04 53.2 °F 52.7 °F 30.18 in Calm     98% 0 in meteobridge W/m2
23:09 53.2 °F 52.7 °F 30.18 in Calm     98% 0.01 in meteobridge W/m2
23:14 53.2 °F 52.7 °F 30.17 in Calm     98% 0.01 in meteobridge W/m2
23:19 53.2 °F 52.7 °F 30.17 in Calm     98% 0.01 in meteobridge W/m2
23:24 53.2 °F 52.7 °F 30.17 in Calm     98% 0.03 in meteobridge W/m2
23:29 53.2 °F 52.7 °F 30.17 in Calm     98% 0.04 in meteobridge W/m2
23:34 53.2 °F 52.7 °F 30.17 in Calm     98% 0.04 in meteobridge W/m2
23:39 53.2 °F 52.9 °F 30.16 in Calm     99% 0.04 in meteobridge W/m2
23:44 53.2 °F 52.9 °F 30.17 in Calm     99% 0.04 in meteobridge W/m2
23:49 53.2 °F 52.9 °F 30.17 in Calm     99% 0.04 in meteobridge W/m2
23:54 53.2 °F 52.9 °F 30.17 in Calm     99% 0.04 in meteobridge W/m2
23:59 53.2 °F 52.9 °F 30.17 in Calm     99% 0.04 in meteobridge W/m2
EllijayWeather
Compliments of Weather Underground - 2.5 mb